ボードー の空港の天気 - METARとTAF

Bodo Vi ( ENBO / BOO ) - ノルウェー ヌールラン県ボードー
飛行場実況気象(Metar)
観測時間08/17 05:20 CEST (08/17 03:20 UTC)
風向・風速南西 9m/s
視程6000m
天気現象しゅう雨
少しの雲 雲底高度 550m
全天の8割程度の雲 雲底高度 910m
気温12℃
湿度94%
気圧1013hPa
METARENBO 170320Z 22017KT 6000 SHRA FEW018TCU BKN030 12/11 Q1013
過去の天気等 Google飛行場航空写真 Wunderground天気予報

過去48時間のMETAR

飛行場予報(TAF)
発表時間: -
17日9時 CEST ~ 17日11時 CEST に徐々に
風向・風速不定 3m/s
17日18時 CEST ~ 17日20時 CEST に徐々に
風向・風速東 5m/s
TAF ENBO 1700/1724 23018KT 9999 -SHRA FEW010TCU BKN040
BECMG 1707/1709 VRB05KT
BECMG 1716/1718 09010KT